createdAt,value
2019-01-25T00:01:11.310Z,112.83
2019-01-25T00:05:15.494Z,109.60
2019-01-25T00:09:19.639Z,115.57
2019-01-25T00:13:23.762Z,118.37
2019-01-25T00:17:28.033Z,107.10
2019-01-25T00:21:32.150Z,111.67
2019-01-25T00:25:36.254Z,117.53
2019-01-25T00:29:40.458Z,113.20
2019-01-25T00:33:44.650Z,121.73
2019-01-25T00:37:48.845Z,118.33
2019-01-25T00:41:52.965Z,107.90
2019-01-25T00:45:57.106Z,104.17
2019-01-25T00:50:01.373Z,108.00
2019-01-25T00:54:06.571Z,113.53
2019-01-25T00:58:10.768Z,111.67
2019-01-25T01:02:14.970Z,114.17
2019-01-25T01:06:19.121Z,119.10
2019-01-25T01:10:23.441Z,110.87
2019-01-25T01:14:27.566Z,116.63
2019-01-25T01:18:31.775Z,117.57
2019-01-25T01:22:35.994Z,108.67
2019-01-25T01:26:40.181Z,117.57
2019-01-25T01:30:44.386Z,123.17
2019-01-25T01:34:48.669Z,110.93
2019-01-25T01:38:52.872Z,115.30
2019-01-25T01:42:56.991Z,105.73
2019-01-25T01:47:01.157Z,119.93
2019-01-25T01:51:05.581Z,126.60
2019-01-25T01:55:09.934Z,111.70
2019-01-25T01:59:14.053Z,118.07
2019-01-25T02:03:18.222Z,117.00
2019-01-25T02:07:22.417Z,113.93
2019-01-25T02:11:26.605Z,110.33
2019-01-25T02:15:30.792Z,123.57
2019-01-25T02:19:35.082Z,126.27
2019-01-25T02:23:39.278Z,118.43
2019-01-25T02:27:43.383Z,116.27
2019-01-25T02:31:47.584Z,119.63
2019-01-25T02:35:51.779Z,125.37
2019-01-25T02:39:55.987Z,106.70
2019-01-25T02:44:00.179Z,113.47
2019-01-25T02:48:04.458Z,125.47
2019-01-25T02:52:08.735Z,118.80
2019-01-25T02:56:12.925Z,116.20
2019-01-25T03:00:22.201Z,112.30
2019-01-25T03:04:26.402Z,119.30
2019-01-25T03:08:30.594Z,108.63
2019-01-25T03:12:34.720Z,126.80
2019-01-25T03:16:38.958Z,126.30
2019-01-25T03:20:43.163Z,111.80
2019-01-25T03:24:47.357Z,117.87
2019-01-25T03:28:51.521Z,124.30
2019-01-25T03:32:55.673Z,121.03
2019-01-25T03:36:59.851Z,125.63
2019-01-25T03:41:04.159Z,122.60
2019-01-25T03:45:08.662Z,124.47
2019-01-25T03:49:12.847Z,117.27
2019-01-25T03:53:17.045Z,118.50
2019-01-25T03:57:21.246Z,115.17
2019-01-25T04:01:25.379Z,121.50
2019-01-25T04:05:29.681Z,117.77
2019-01-25T04:09:33.926Z,115.23
2019-01-25T04:13:38.131Z,120.43
2019-01-25T04:17:42.318Z,118.87
2019-01-25T04:21:46.444Z,108.50
2019-01-25T04:25:50.642Z,116.50
2019-01-25T04:29:54.744Z,116.50
2019-01-25T04:33:58.933Z,118.70
2019-01-25T04:38:03.125Z,120.43
2019-01-25T04:42:07.338Z,118.13
2019-01-25T04:46:11.607Z,119.57
2019-01-25T04:50:23.229Z,109.00
2019-01-25T04:54:27.435Z,122.80
2019-01-25T04:58:31.671Z,116.20
2019-01-25T05:02:35.871Z,121.37
2019-01-25T05:06:40.103Z,114.97
2019-01-25T05:10:44.318Z,114.80
2019-01-25T05:14:48.493Z,115.93
2019-01-25T05:18:52.682Z,116.73
2019-01-25T05:22:58.469Z,110.73
2019-01-25T05:27:02.664Z,93.50
2019-01-25T05:31:07.914Z,82.43
2019-01-25T05:35:12.101Z,83.23
2019-01-25T05:39:16.311Z,95.90
2019-01-25T05:43:20.546Z,103.73
2019-01-25T05:47:24.684Z,106.00
2019-01-25T05:51:33.528Z,106.07
2019-01-25T05:55:34.922Z,105.10
2019-01-25T05:59:39.115Z,88.90
2019-01-25T06:03:43.393Z,101.20
2019-01-25T06:07:47.712Z,89.57
2019-01-25T06:11:51.849Z,100.63
2019-01-25T06:15:56.073Z,111.93
2019-01-25T06:20:00.360Z,87.13
2019-01-25T06:24:04.579Z,91.87
2019-01-25T06:28:08.780Z,72.97
2019-01-25T06:32:13.110Z,65.60
2019-01-25T06:36:17.291Z,74.23
2019-01-25T06:40:21.480Z,66.53
2019-01-25T06:44:25.709Z,61.60
2019-01-25T06:48:29.915Z,68.30
2019-01-25T06:52:34.199Z,64.70
2019-01-25T06:56:38.376Z,66.23
2019-01-25T07:00:48.933Z,64.93
2019-01-25T07:04:53.254Z,60.50
2019-01-25T07:08:57.473Z,66.57
2019-01-25T07:13:01.590Z,60.93
2019-01-25T07:17:05.898Z,62.13
2019-01-25T07:21:10.079Z,59.13
2019-01-25T07:25:15.009Z,62.00
2019-01-25T07:29:19.226Z,69.27
2019-01-25T07:33:23.429Z,70.97
2019-01-25T07:37:27.590Z,55.23
2019-01-25T07:41:31.871Z,63.53
2019-01-25T07:45:36.063Z,61.70
2019-01-25T07:49:40.255Z,70.03
2019-01-25T07:53:44.447Z,66.43
2019-01-25T07:57:48.624Z,63.17
2019-01-25T08:01:52.847Z,65.67
2019-01-25T08:05:57.057Z,67.83
2019-01-25T08:10:01.266Z,71.90
2019-01-25T08:14:05.540Z,70.57
2019-01-25T08:18:09.735Z,65.60
2019-01-25T08:22:13.915Z,69.30
2019-01-25T08:26:18.202Z,69.13
2019-01-25T08:30:22.516Z,76.20
2019-01-25T08:34:26.699Z,67.80
2019-01-25T08:38:30.894Z,68.73
2019-01-25T08:42:35.072Z,74.87
2019-01-25T08:46:39.368Z,67.10
2019-01-25T08:50:43.600Z,77.20
2019-01-25T08:54:47.883Z,69.60
2019-01-25T08:58:52.050Z,76.43
2019-01-25T09:02:56.361Z,67.37
2019-01-25T09:07:00.555Z,73.57
2019-01-25T09:11:04.778Z,67.43
2019-01-25T09:15:11.650Z,72.97
2019-01-25T09:19:15.853Z,74.60
2019-01-25T09:23:20.017Z,74.27
2019-01-25T09:27:24.156Z,72.87
2019-01-25T09:31:28.354Z,75.53
2019-01-25T09:35:32.555Z,67.53
2019-01-25T09:39:36.788Z,67.00
2019-01-25T09:43:40.949Z,70.17
2019-01-25T09:47:45.146Z,75.60
2019-01-25T09:51:49.346Z,72.30
2019-01-25T09:55:53.546Z,75.70
2019-01-25T09:59:57.902Z,70.23
2019-01-25T10:04:02.106Z,70.97
2019-01-25T10:08:06.338Z,65.93
2019-01-25T10:12:10.533Z,66.17
2019-01-25T10:16:15.691Z,73.23
2019-01-25T10:20:20.359Z,77.73
2019-01-25T10:24:24.566Z,67.40
2019-01-25T10:28:28.762Z,74.17
2019-01-25T10:32:33.045Z,61.23
2019-01-25T10:36:37.279Z,67.00
2019-01-25T10:40:41.463Z,65.93
2019-01-25T10:44:45.727Z,49.77
2019-01-25T10:48:49.950Z,56.47
2019-01-25T10:52:54.170Z,48.83
2019-01-25T10:56:58.372Z,52.57
2019-01-25T11:01:02.589Z,54.93
2019-01-25T11:05:08.034Z,40.07
2019-01-25T11:09:12.263Z,59.30
2019-01-25T11:13:16.530Z,61.17
2019-01-25T11:17:20.726Z,58.77
2019-01-25T11:21:24.903Z,59.77
2019-01-25T11:25:31.851Z,61.33
2019-01-25T11:29:36.049Z,58.53
2019-01-25T11:33:40.306Z,58.07
2019-01-25T11:37:44.518Z,68.93
2019-01-25T11:41:48.699Z,61.00
2019-01-25T11:45:54.446Z,69.13
2019-01-25T11:49:58.699Z,62.33
2019-01-25T11:54:02.911Z,63.57
2019-01-25T11:58:07.230Z,60.00
2019-01-25T12:02:11.410Z,55.00
2019-01-25T12:06:16.599Z,52.93
2019-01-25T12:10:23.347Z,57.37
2019-01-25T12:14:27.564Z,53.17
2019-01-25T12:18:31.785Z,44.37
2019-01-25T12:22:36.089Z,47.97
2019-01-25T12:26:40.326Z,48.47
2019-01-25T12:30:44.514Z,51.87
2019-01-25T12:34:48.850Z,45.27
2019-01-25T12:38:53.041Z,49.23
2019-01-25T12:42:57.129Z,51.33
2019-01-25T12:47:01.425Z,51.27
2019-01-25T12:51:42.117Z,44.63
2019-01-25T12:55:46.333Z,45.73
2019-01-25T12:59:50.594Z,49.17
2019-01-25T13:03:55.091Z,52.80
2019-01-25T13:07:59.289Z,49.80
2019-01-25T13:12:03.479Z,53.27
2019-01-25T13:16:07.680Z,51.13
2019-01-25T13:20:15.066Z,49.27
2019-01-25T13:24:19.268Z,53.63
2019-01-25T13:28:23.440Z,48.57
2019-01-25T13:32:27.648Z,59.80
2019-01-25T13:36:31.838Z,55.27
2019-01-25T13:40:36.116Z,54.77
2019-01-25T13:44:40.321Z,55.70
2019-01-25T13:48:44.418Z,60.47
2019-01-25T13:52:48.623Z,61.40
2019-01-25T13:56:52.814Z,57.57
2019-01-25T14:00:56.938Z,49.57
2019-01-25T14:05:01.138Z,50.50
2019-01-25T14:09:07.766Z,59.70
2019-01-25T14:13:11.970Z,60.53
2019-01-25T14:17:16.166Z,57.33
2019-01-25T14:21:20.422Z,59.27
2019-01-25T14:25:24.778Z,58.47
2019-01-25T14:29:29.386Z,50.60
2019-01-25T14:33:33.689Z,57.57
2019-01-25T14:37:37.950Z,51.40
2019-01-25T14:41:42.158Z,54.67
2019-01-25T14:45:46.358Z,51.50
2019-01-25T14:49:50.472Z,49.00
2019-01-25T14:53:54.669Z,50.47
2019-01-25T14:57:58.789Z,49.33
2019-01-25T15:02:02.987Z,48.60
2019-01-25T15:06:07.227Z,45.07
2019-01-25T15:10:14.332Z,47.27
2019-01-25T15:14:18.530Z,44.47
2019-01-25T15:18:22.659Z,45.20
2019-01-25T15:22:26.855Z,52.50
2019-01-25T15:26:31.116Z,50.03
2019-01-25T15:30:35.293Z,51.03
2019-01-25T15:34:39.511Z,51.90
2019-01-25T15:38:43.754Z,58.33
2019-01-25T15:42:48.193Z,53.20
2019-01-25T15:46:52.375Z,57.87
2019-01-25T15:50:56.554Z,48.00
2019-01-25T15:55:00.705Z,57.07
2019-01-25T15:59:04.918Z,57.97
2019-01-25T16:03:09.113Z,59.63
2019-01-25T16:07:13.243Z,64.73
2019-01-25T16:11:17.456Z,67.13
2019-01-25T16:15:23.804Z,70.90
2019-01-25T16:19:28.039Z,70.40
2019-01-25T16:23:32.249Z,73.43
2019-01-25T16:27:36.481Z,86.10
2019-01-25T16:31:40.667Z,86.07
2019-01-25T16:35:44.862Z,88.97
2019-01-25T16:39:49.059Z,96.33
2019-01-25T16:43:53.266Z,90.07
2019-01-25T16:47:57.457Z,109.17
2019-01-25T16:52:01.555Z,94.57
2019-01-25T16:56:06.201Z,109.73
2019-01-25T17:00:19.983Z,102.33
2019-01-25T17:04:24.179Z,96.70
2019-01-25T17:08:28.389Z,88.60
2019-01-25T17:12:32.573Z,95.13
2019-01-25T17:16:36.745Z,102.33
2019-01-25T17:20:41.090Z,116.03
2019-01-25T17:24:45.293Z,108.37
2019-01-25T17:28:49.485Z,115.07
2019-01-25T17:32:54.108Z,105.33
2019-01-25T17:36:58.283Z,96.53
2019-01-25T17:41:02.477Z,95.70
2019-01-25T17:45:07.886Z,92.23
2019-01-25T17:49:12.090Z,96.97
2019-01-25T17:53:16.302Z,98.57
2019-01-25T17:57:20.486Z,104.97
2019-01-25T18:01:24.759Z,105.63
2019-01-25T18:05:28.957Z,102.63
2019-01-25T18:09:33.101Z,106.20
2019-01-25T18:13:37.227Z,100.17
2019-01-25T18:17:41.318Z,98.97
2019-01-25T18:21:45.531Z,108.17
2019-01-25T18:25:57.199Z,108.00
2019-01-25T18:30:01.919Z,88.97
2019-01-25T18:34:06.932Z,91.93
2019-01-25T18:38:11.121Z,99.80
2019-01-25T18:42:15.307Z,84.63
2019-01-25T18:46:19.593Z,83.07
2019-01-25T18:50:23.709Z,82.90
2019-01-25T18:54:27.985Z,78.67
2019-01-25T18:58:32.275Z,75.80
2019-01-25T19:02:36.486Z,73.27
2019-01-25T19:11:03.954Z,71.53
2019-01-25T19:15:10.717Z,66.20
2019-01-25T19:19:14.901Z,73.20
2019-01-25T19:23:19.209Z,69.67
2019-01-25T19:27:23.402Z,64.27
2019-01-25T19:31:27.607Z,57.23
2019-01-25T19:35:31.801Z,65.30
2019-01-25T19:39:35.973Z,59.13
2019-01-25T19:43:40.201Z,63.13
2019-01-25T19:47:44.382Z,57.63
2019-01-25T19:51:48.554Z,55.17
2019-01-25T19:55:52.770Z,63.87
2019-01-25T19:59:56.965Z,52.87
2019-01-25T20:04:01.142Z,57.53
2019-01-25T20:08:06.257Z,61.40
2019-01-25T20:12:10.369Z,61.43
2019-01-25T20:16:14.588Z,47.43
2019-01-25T20:20:21.190Z,49.77
2019-01-25T20:24:25.357Z,45.83
2019-01-25T20:28:29.558Z,41.03
2019-01-25T20:32:33.741Z,35.87
2019-01-25T20:36:37.861Z,32.40
2019-01-25T20:40:41.989Z,32.03
2019-01-25T20:44:46.163Z,26.17
2019-01-25T20:48:50.378Z,31.17
2019-01-25T20:52:54.585Z,30.17
2019-01-25T20:56:58.814Z,28.53
2019-01-25T21:01:03.062Z,30.23
2019-01-25T21:05:07.835Z,24.03
2019-01-25T21:09:12.370Z,29.30
2019-01-25T21:13:16.571Z,23.50
2019-01-25T21:17:20.778Z,22.67
2019-01-25T21:21:25.058Z,28.77
2019-01-25T21:25:29.419Z,26.63
2019-01-25T21:29:33.647Z,24.33
2019-01-25T21:33:37.843Z,23.97
2019-01-25T21:37:42.051Z,26.03
2019-01-25T21:41:46.315Z,25.53
2019-01-25T21:45:50.601Z,26.97
2019-01-25T21:49:54.827Z,21.80
2019-01-25T21:53:59.086Z,21.73
2019-01-25T21:58:05.426Z,21.80
2019-01-25T22:02:09.274Z,18.93
2019-01-25T22:06:15.006Z,26.13
2019-01-25T22:10:24.550Z,23.40
2019-01-25T22:14:28.848Z,20.50
2019-01-25T22:18:33.010Z,17.43
2019-01-25T22:22:37.174Z,14.73
2019-01-25T22:26:41.414Z,17.70
2019-01-25T22:30:45.607Z,14.83
2019-01-25T22:34:50.557Z,15.60
2019-01-25T22:38:54.984Z,16.80
2019-01-25T22:42:59.546Z,16.23
2019-01-25T22:47:03.713Z,17.47
2019-01-25T22:51:08.146Z,16.27
2019-01-25T22:55:13.197Z,16.97
2019-01-25T22:59:17.396Z,16.20
2019-01-25T23:03:25.301Z,16.47
2019-01-25T23:07:31.526Z,17.53
2019-01-25T23:11:35.821Z,17.90
2019-01-25T23:15:39.942Z,16.43
2019-01-25T23:19:44.067Z,16.67
2019-01-25T23:23:48.301Z,15.43
2019-01-25T23:27:53.282Z,16.67
2019-01-25T23:31:57.666Z,15.50
2019-01-25T23:36:01.831Z,15.57
2019-01-25T23:40:08.753Z,16.40
2019-01-25T23:44:12.938Z,14.00
2019-01-25T23:48:17.038Z,15.53
2019-01-25T23:52:21.223Z,15.03
2019-01-25T23:56:25.503Z,14.63
